Time;durP1;ratioP1;P1;durP2;ratioP2;P2;SDS_P1;SDS_P2;PMS_P1;PMS_P2;Temp;Humidity;BMP_temperature;BMP_pressure;BME280_temperature;BME280_humidity;BME280_pressure;Samples;Min_cycle;Max_cycle;Signal;HPM_P1;HPM_P2
2021/01/17 00:01:02;;;;;;;;;;;0.50;99.90;;;;;;5152295;27;19911;-84
2021/01/17 00:03:28;;;;;;;;;;;0.60;99.90;;;;;;5139794;27;19907;-85
2021/01/17 00:05:55;;;;;;;;;;;0.50;99.90;;;;;;5149679;27;20363;-85
2021/01/17 00:08:20;;;;;;;;;;;0.50;99.90;;;;;;5138095;27;19951;-85
2021/01/17 00:10:46;;;;;;;;;;;0.60;99.90;;;;;;5138567;27;19971;-85
2021/01/17 00:13:12;;;;;;;;;;;0.50;99.90;;;;;;5150295;27;19914;-85
2021/01/17 00:15:38;;;;;;;;;;;0.60;99.90;;;;;;5156487;27;20332;-86
2021/01/17 00:18:06;;;;;;;;;;;0.60;99.90;;;;;;5131612;27;20029;-85
2021/01/17 00:20:32;;;;;;;;;;;0.60;99.90;;;;;;5135230;27;20018;-85
2021/01/17 00:23:03;;;;;;;;;;;0.60;99.90;;;;;;5156292;27;19972;-85
2021/01/17 00:25:30;;;;;;;;;;;0.60;99.90;;;;;;5137529;27;19907;-85
2021/01/17 00:27:56;;;;;;;;;;;0.60;99.90;;;;;;5134350;27;19922;-85
2021/01/17 00:30:25;;;;;;;;;;;0.60;99.90;;;;;;5137755;27;20347;-85
2021/01/17 00:32:54;;;;;;;;;;;0.60;99.90;;;;;;5137924;27;19959;-85
2021/01/17 00:35:21;;;;;;;;;;;0.60;99.90;;;;;;5156536;27;19951;-85
2021/01/17 00:37:50;;;;;;;;;;;0.60;99.90;;;;;;5138324;27;19934;-85
2021/01/17 00:40:15;;;;;;;;;;;0.60;99.90;;;;;;5149616;27;19919;-86
2021/01/17 00:42:45;;;;;;;;;;;0.60;99.90;;;;;;5137772;27;19946;-85
2021/01/17 00:45:11;;;;;;;;;;;0.60;99.90;;;;;;5137198;27;19911;-86
2021/01/17 00:47:37;;;;;;;;;;;0.60;99.90;;;;;;5155796;27;19919;-86
2021/01/17 00:50:03;;;;;;;;;;;0.60;99.90;;;;;;5152996;27;20006;-86
2021/01/17 00:52:29;;;;;;;;;;;0.60;99.90;;;;;;5130762;27;19907;-85
2021/01/17 00:54:54;;;;;;;;;;;0.60;99.90;;;;;;5130967;27;19907;-86
2021/01/17 00:57:20;;;;;;;;;;;0.60;99.90;;;;;;5155771;27;19949;-86
2021/01/17 00:59:45;;;;;;;;;;;0.60;99.90;;;;;;5155909;27;19918;-85
2021/01/17 01:02:11;;;;;;;;;;;0.60;99.90;;;;;;5134204;27;20010;-85
2021/01/17 01:04:36;;;;;;;;;;;0.60;99.90;;;;;;5137483;27;19907;-85
2021/01/17 01:07:03;;;;;;;;;;;0.60;99.90;;;;;;5133888;27;19987;-85
2021/01/17 01:09:29;;;;;;;;;;;0.60;99.90;;;;;;5137523;27;19911;-86
2021/01/17 01:11:55;;;;;;;;;;;0.60;99.90;;;;;;5137439;27;20316;-85
2021/01/17 01:14:20;;;;;;;;;;;0.60;99.90;;;;;;5137613;27;19914;-85
2021/01/17 01:16:51;;;;;;;;;;;0.60;99.90;;;;;;5139328;27;19911;-85
2021/01/17 01:19:16;;;;;;;;;;;0.60;99.90;;;;;;5160193;27;19914;-86
2021/01/17 01:21:45;;;;;;;;;;;0.70;99.90;;;;;;5141253;27;19933;-85
2021/01/17 01:24:14;;;;;;;;;;;0.60;99.90;;;;;;5134168;27;19907;-86
2021/01/17 01:26:43;;;;;;;;;;;0.70;99.90;;;;;;5159208;27;19907;-85
2021/01/17 01:29:09;;;;;;;;;;;0.70;99.90;;;;;;5159159;27;19915;-85
2021/01/17 01:31:35;;;;;;;;;;;0.70;99.90;;;;;;5134470;27;19907;-85
2021/01/17 01:34:04;;;;;;;;;;;0.70;99.90;;;;;;5141104;27;19913;-86
2021/01/17 01:36:31;;;;;;;;;;;0.70;99.90;;;;;;5158855;27;19911;-85
2021/01/17 01:38:57;;;;;;;;;;;0.70;99.90;;;;;;5140158;27;20312;-85
2021/01/17 01:41:26;;;;;;;;;;;0.70;99.90;;;;;;5140504;27;19907;-85
2021/01/17 01:43:54;;;;;;;;;;;0.70;99.90;;;;;;5140851;27;20245;-85
2021/01/17 01:46:21;;;;;;;;;;;0.70;99.90;;;;;;5158956;27;19911;-85
2021/01/17 01:48:50;;;;;;;;;;;0.70;99.90;;;;;;5137189;27;19927;-85
2021/01/17 01:51:16;;;;;;;;;;;0.70;99.90;;;;;;5135298;27;20039;-86
2021/01/17 01:53:42;;;;;;;;;;;0.70;99.90;;;;;;5159028;27;19950;-85
2021/01/17 01:56:07;;;;;;;;;;;0.70;99.90;;;;;;5038092;28;20324;-85
2021/01/17 01:58:36;;;;;;;;;;;0.70;99.90;;;;;;5038398;28;19913;-86
2021/01/17 02:01:04;;;;;;;;;;;0.70;99.90;;;;;;5038821;28;19913;-85
2021/01/17 02:03:30;;;;;;;;;;;0.70;99.90;;;;;;5055558;28;19909;-85
2021/01/17 02:05:55;;;;;;;;;;;0.70;99.90;;;;;;5038607;28;20007;-85
2021/01/17 02:08:26;;;;;;;;;;;0.70;99.90;;;;;;5038915;28;19996;-84
2021/01/17 02:10:52;;;;;;;;;;;0.70;99.90;;;;;;5038373;28;19909;-84
2021/01/17 02:13:23;;;;;;;;;;;0.70;99.90;;;;;;5050245;28;19976;-84
2021/01/17 02:15:52;;;;;;;;;;;0.70;99.90;;;;;;5037795;28;19909;-84
2021/01/17 02:18:21;;;;;;;;;;;0.70;99.90;;;;;;5054222;28;19996;-85
2021/01/17 02:20:47;;;;;;;;;;;0.70;99.90;;;;;;5038047;28;19973;-86
2021/01/17 02:23:21;;;;;;;;;;;0.70;99.90;;;;;;5034290;28;19909;-86
2021/01/17 02:25:50;;;;;;;;;;;0.80;99.90;;;;;;5037225;28;19909;-85
2021/01/17 02:28:23;;;;;;;;;;;0.70;99.90;;;;;;5135814;27;19914;-87
2021/01/17 02:30:52;;;;;;;;;;;0.70;99.90;;;;;;5158321;27;20010;-84
2021/01/17 02:33:22;;;;;;;;;;;0.70;99.90;;;;;;5140422;27;19925;-84
2021/01/17 02:35:50;;;;;;;;;;;0.70;99.90;;;;;;5140382;27;19907;-84
2021/01/17 02:38:26;;;;;;;;;;;0.70;99.90;;;;;;5136523;27;20010;-84
2021/01/17 02:40:52;;;;;;;;;;;0.70;99.90;;;;;;5150716;27;20387;-84
2021/01/17 02:43:19;;;;;;;;;;;0.80;99.90;;;;;;5139366;27;19956;-84
2021/01/17 02:45:44;;;;;;;;;;;0.80;99.90;;;;;;5158440;27;19964;-84
2021/01/17 02:48:10;;;;;;;;;;;0.80;99.90;;;;;;5158545;27;20320;-84
2021/01/17 02:50:38;;;;;;;;;;;0.70;99.90;;;;;;5157958;27;19990;-84
2021/01/17 02:53:06;;;;;;;;;;;0.80;99.90;;;;;;5138999;27;19952;-84
2021/01/17 02:55:35;;;;;;;;;;;0.80;99.90;;;;;;5138821;27;19907;-85
2021/01/17 02:58:02;;;;;;;;;;;0.80;99.90;;;;;;5158224;27;19907;-83
2021/01/17 03:00:32;;;;;;;;;;;0.80;99.90;;;;;;5139161;27;19958;-84
2021/01/17 03:02:58;;;;;;;;;;;0.80;99.90;;;;;;5133507;27;19911;-85
2021/01/17 03:05:24;;;;;;;;;;;0.80;99.90;;;;;;5138582;27;19952;-84
2021/01/17 03:07:54;;;;;;;;;;;0.80;99.90;;;;;;5132767;27;19910;-84
2021/01/17 03:10:21;;;;;;;;;;;0.80;99.90;;;;;;5157484;27;19951;-85
2021/01/17 03:12:47;;;;;;;;;;;0.80;99.90;;;;;;5156961;27;19973;-85
2021/01/17 03:15:17;;;;;;;;;;;0.80;99.90;;;;;;5139374;27;19907;-84
2021/01/17 03:17:42;;;;;;;;;;;0.80;99.90;;;;;;5151732;27;19907;-84
2021/01/17 03:20:08;;;;;;;;;;;0.90;99.90;;;;;;5138590;27;20059;-85
2021/01/17 03:22:34;;;;;;;;;;;0.90;99.90;;;;;;5138757;27;19997;-84
2021/01/17 03:24:59;;;;;;;;;;;0.90;99.90;;;;;;5157506;27;19914;-85
2021/01/17 03:27:25;;;;;;;;;;;0.80;99.90;;;;;;5138694;27;19907;-85
2021/01/17 03:29:50;;;;;;;;;;;0.90;99.90;;;;;;5157113;27;19997;-85
2021/01/17 03:32:17;;;;;;;;;;;0.90;99.90;;;;;;5156870;27;19911;-85
2021/01/17 03:34:48;;;;;;;;;;;0.90;99.90;;;;;;5138971;27;19907;-85
2021/01/17 03:37:14;;;;;;;;;;;0.90;99.90;;;;;;5138441;27;19918;-86
2021/01/17 03:39:39;;;;;;;;;;;0.90;99.90;;;;;;5137904;27;19911;-86
2021/01/17 03:42:05;;;;;;;;;;;0.90;99.90;;;;;;5138268;27;19950;-85
2021/01/17 03:44:30;;;;;;;;;;;0.90;99.90;;;;;;5138652;27;19912;-85
2021/01/17 03:46:56;;;;;;;;;;;0.90;99.90;;;;;;5138729;27;20280;-85
2021/01/17 03:49:21;;;;;;;;;;;0.90;99.90;;;;;;5138789;27;19911;-86
2021/01/17 03:51:47;;;;;;;;;;;0.80;99.90;;;;;;5138639;27;19907;-86
2021/01/17 03:54:12;;;;;;;;;;;0.80;99.90;;;;;;5138769;27;19907;-85
2021/01/17 03:56:38;;;;;;;;;;;0.80;99.90;;;;;;5139162;27;19918;-85
2021/01/17 03:59:03;;;;;;;;;;;0.80;99.90;;;;;;5138403;27;20062;-86
2021/01/17 04:01:29;;;;;;;;;;;0.80;99.90;;;;;;5157287;27;19952;-85
2021/01/17 04:03:56;;;;;;;;;;;0.90;99.90;;;;;;5138811;27;19945;-86
2021/01/17 04:06:21;;;;;;;;;;;0.90;99.90;;;;;;5138181;27;19959;-85
2021/01/17 04:08:49;;;;;;;;;;;0.90;99.90;;;;;;5153803;27;19915;-85
2021/01/17 04:11:17;;;;;;;;;;;0.90;99.90;;;;;;5137549;27;19907;-86
2021/01/17 04:13:43;;;;;;;;;;;0.90;99.90;;;;;;5139089;27;19907;-86
2021/01/17 04:16:10;;;;;;;;;;;0.90;99.90;;;;;;5137983;27;19914;-86
2021/01/17 04:18:43;;;;;;;;;;;0.90;99.90;;;;;;5138028;27;19914;-86
2021/01/17 04:21:09;;;;;;;;;;;0.90;99.90;;;;;;5137877;27;19911;-85
2021/01/17 04:23:34;;;;;;;;;;;0.90;99.90;;;;;;5134489;27;19918;-85
2021/01/17 04:26:02;;;;;;;;;;;0.90;99.90;;;;;;5138144;27;19947;-85
2021/01/17 04:28:30;;;;;;;;;;;0.80;99.90;;;;;;5132221;27;19914;-85
2021/01/17 04:30:58;;;;;;;;;;;0.90;99.90;;;;;;5132537;27;20007;-86
2021/01/17 04:33:23;;;;;;;;;;;0.90;99.90;;;;;;5134763;27;19911;-85
2021/01/17 04:35:49;;;;;;;;;;;0.90;99.90;;;;;;5156498;27;19913;-86
2021/01/17 04:38:17;;;;;;;;;;;0.90;99.90;;;;;;5137504;27;19911;-86
2021/01/17 04:40:49;;;;;;;;;;;0.90;99.90;;;;;;5156264;27;20428;-86
2021/01/17 04:43:18;;;;;;;;;;;1.00;99.90;;;;;;5137761;27;20415;-86
2021/01/17 04:45:46;;;;;;;;;;;1.00;99.90;;;;;;5137815;27;20359;-85
2021/01/17 04:48:12;;;;;;;;;;;1.00;99.90;;;;;;5137126;27;19945;-85
2021/01/17 04:50:44;;;;;;;;;;;0.90;99.90;;;;;;5156139;27;19907;-86
2021/01/17 04:53:11;;;;;;;;;;;1.00;99.90;;;;;;5136670;27;19913;-85
2021/01/17 04:55:41;;;;;;;;;;;1.00;99.90;;;;;;5160391;27;19911;-85
2021/01/17 04:58:17;;;;;;;;;;;1.00;99.90;;;;;;5141938;27;19958;-85
2021/01/17 05:00:53;;;;;;;;;;;1.00;99.90;;;;;;5141639;27;19922;-86
2021/01/17 05:03:50;;;;;;;;;;;1.00;99.90;;;;;;5132922;27;19908;-85
2021/01/17 05:06:22;;;;;;;;;;;1.00;99.90;;;;;;5159890;27;19979;-85
2021/01/17 05:09:10;;;;;;;;;;;1.00;99.90;;;;;;5160118;27;19911;-85
2021/01/17 05:11:38;;;;;;;;;;;1.00;99.90;;;;;;5140658;27;20009;-85
2021/01/17 05:14:14;;;;;;;;;;;1.00;99.90;;;;;;5141631;27;19960;-85
2021/01/17 05:16:43;;;;;;;;;;;1.00;99.90;;;;;;5141113;27;19964;-86
2021/01/17 05:19:13;;;;;;;;;;;1.00;99.90;;;;;;5140722;27;19946;-86
2021/01/17 05:21:39;;;;;;;;;;;1.00;99.90;;;;;;5158879;27;20363;-85
2021/01/17 05:24:09;;;;;;;;;;;1.00;99.90;;;;;;5158779;27;20359;-85
2021/01/17 05:26:41;;;;;;;;;;;1.00;99.90;;;;;;5159356;27;19907;-85
2021/01/17 05:29:07;;;;;;;;;;;1.00;99.90;;;;;;5159377;27;19919;-85
2021/01/17 05:31:35;;;;;;;;;;;1.00;99.90;;;;;;5140682;27;19907;-85
2021/01/17 05:34:04;;;;;;;;;;;1.00;99.90;;;;;;5140846;27;19914;-85
2021/01/17 05:36:29;;;;;;;;;;;1.10;99.90;;;;;;5140374;27;19907;-85
2021/01/17 05:38:58;;;;;;;;;;;1.10;99.90;;;;;;5159218;27;19922;-84
2021/01/17 05:41:24;;;;;;;;;;;1.10;99.90;;;;;;5140605;27;19911;-84
2021/01/17 05:43:50;;;;;;;;;;;1.00;99.90;;;;;;5159104;27;19907;-85
2021/01/17 05:46:18;;;;;;;;;;;1.00;99.90;;;;;;5140612;27;19938;-84
2021/01/17 05:48:47;;;;;;;;;;;1.00;99.90;;;;;;5139722;27;19919;-84
2021/01/17 05:51:26;;;;;;;;;;;1.10;99.90;;;;;;5136773;27;20347;-84
2021/01/17 05:53:51;;;;;;;;;;;1.10;99.90;;;;;;5140032;27;19911;-85
2021/01/17 05:56:21;;;;;;;;;;;1.10;99.90;;;;;;5158663;27;19907;-84
2021/01/17 05:58:58;;;;;;;;;;;1.10;99.90;;;;;;5139596;27;19907;-85
2021/01/17 06:01:25;;;;;;;;;;;1.10;99.90;;;;;;5151108;27;19978;-84
2021/01/17 06:03:56;;;;;;;;;;;1.10;99.90;;;;;;5139565;27;19915;-85
2021/01/17 06:06:32;;;;;;;;;;;1.20;99.90;;;;;;5139510;27;20360;-84
2021/01/17 06:09:03;;;;;;;;;;;1.10;99.90;;;;;;5140097;27;19911;-84
2021/01/17 06:11:29;;;;;;;;;;;1.10;99.90;;;;;;5157776;27;19974;-85
2021/01/17 06:14:01;;;;;;;;;;;1.10;99.90;;;;;;5158202;27;20367;-84
2021/01/17 06:16:32;;;;;;;;;;;1.10;99.90;;;;;;5139277;27;19915;-84
2021/01/17 06:18:59;;;;;;;;;;;1.10;99.90;;;;;;5139201;27;19918;-84
2021/01/17 06:21:33;;;;;;;;;;;1.10;99.90;;;;;;5139697;27;19919;-84
2021/01/17 06:24:05;;;;;;;;;;;1.10;99.90;;;;;;5139252;27;19943;-84
2021/01/17 06:26:40;;;;;;;;;;;1.20;99.90;;;;;;5139581;27;19943;-84
2021/01/17 06:29:10;;;;;;;;;;;1.10;99.90;;;;;;5139349;27;19907;-84
2021/01/17 06:31:43;;;;;;;;;;;1.20;99.90;;;;;;5093663;28;19912;-84
2021/01/17 06:34:12;;;;;;;;;;;1.20;99.90;;;;;;5093371;28;19908;-84
2021/01/17 06:36:38;;;;;;;;;;;1.20;99.90;;;;;;5076724;28;19931;-84
2021/01/17 06:39:22;;;;;;;;;;;1.20;99.90;;;;;;5076577;28;19912;-85
2021/01/17 06:41:49;;;;;;;;;;;1.20;99.90;;;;;;5076717;28;19909;-84
2021/01/17 06:44:14;;;;;;;;;;;1.20;99.90;;;;;;5094238;28;19953;-85
2021/01/17 06:46:46;;;;;;;;;;;1.20;99.90;;;;;;5095289;28;19908;-84
2021/01/17 06:49:19;;;;;;;;;;;1.20;99.90;;;;;;5078197;28;19908;-84
2021/01/17 06:51:52;;;;;;;;;;;1.30;99.90;;;;;;5094922;28;19908;-85
2021/01/17 06:54:19;;;;;;;;;;;1.30;99.90;;;;;;5095301;28;19908;-85
2021/01/17 06:56:46;;;;;;;;;;;1.30;99.90;;;;;;5076554;28;20007;-84
2021/01/17 06:59:14;;;;;;;;;;;1.30;99.90;;;;;;5093583;28;20010;-84
2021/01/17 07:01:54;;;;;;;;;;;1.30;99.90;;;;;;5083859;27;19966;-84
2021/01/17 07:04:42;;;;;;;;;;;1.30;99.90;;;;;;5138318;27;20001;-85
2021/01/17 07:07:40;;;;;;;;;;;1.30;99.90;;;;;;5088644;27;20002;-84
2021/01/17 07:10:09;;;;;;;;;;;1.30;99.90;;;;;;5082703;27;19911;-84
2021/01/17 07:12:44;;;;;;;;;;;1.30;99.90;;;;;;5156984;27;19952;-84
2021/01/17 07:15:13;;;;;;;;;;;1.30;99.90;;;;;;5138246;27;19907;-84
2021/01/17 07:17:40;;;;;;;;;;;1.30;99.90;;;;;;5135488;27;19954;-84
2021/01/17 07:20:07;;;;;;;;;;;1.30;99.90;;;;;;5135204;27;19968;-84
2021/01/17 07:22:33;;;;;;;;;;;1.30;99.90;;;;;;5138298;27;19907;-84
2021/01/17 07:25:02;;;;;;;;;;;1.30;99.90;;;;;;5138060;27;19951;-84
2021/01/17 07:27:55;;;;;;;;;;;1.30;99.90;;;;;;5138323;27;19946;-85
2021/01/17 07:30:41;;;;;;;;;;;1.30;99.90;;;;;;5138032;27;20345;-84
2021/01/17 07:33:10;;;;;;;;;;;1.30;99.90;;;;;;5119905;27;19988;-84
2021/01/17 07:35:45;;;;;;;;;;;1.30;99.90;;;;;;5156220;27;19907;-84
2021/01/17 07:38:40;;;;;;;;;;;1.30;99.90;;;;;;5137838;27;20287;-85
2021/01/17 07:41:06;;;;;;;;;;;1.40;99.90;;;;;;5153360;27;19922;-85
2021/01/17 07:43:39;;;;;;;;;;;1.30;99.90;;;;;;5137631;27;19907;-84
2021/01/17 07:46:11;;;;;;;;;;;1.30;99.90;;;;;;5137459;27;19939;-85
2021/01/17 07:48:42;;;;;;;;;;;1.30;99.90;;;;;;5131775;27;20423;-85
2021/01/17 07:51:08;;;;;;;;;;;1.40;99.90;;;;;;5138062;27;20376;-85
2021/01/17 07:53:42;;;;;;;;;;;1.40;99.90;;;;;;5131141;27;19907;-84
2021/01/17 07:56:13;;;;;;;;;;;1.40;99.90;;;;;;5155912;27;20260;-85
2021/01/17 07:58:50;;;;;;;;;;;1.40;99.90;;;;;;5137869;27;19931;-85
2021/01/17 08:01:33;;;;;;;;;;;1.40;99.90;;;;;;5137599;27;19911;-85
2021/01/17 08:04:05;;;;;;;;;;;1.40;99.90;;;;;;5137798;27;19993;-85
2021/01/17 08:06:36;;;;;;;;;;;1.40;99.90;;;;;;5155775;27;20021;-86
2021/01/17 08:09:08;;;;;;;;;;;1.40;99.90;;;;;;5155555;27;20314;-86
2021/01/17 08:11:42;;;;;;;;;;;1.50;99.90;;;;;;5156201;27;19914;-85
2021/01/17 08:14:23;;;;;;;;;;;1.40;99.90;;;;;;5119804;27;20261;-85
2021/01/17 08:17:08;;;;;;;;;;;1.50;99.90;;;;;;5116094;27;19907;-86
2021/01/17 08:19:34;;;;;;;;;;;1.50;99.90;;;;;;5133660;27;19919;-86
2021/01/17 08:22:18;;;;;;;;;;;1.60;99.90;;;;;;5117351;28;19952;-85
2021/01/17 08:24:48;;;;;;;;;;;1.60;99.90;;;;;;5134752;27;20394;-86
2021/01/17 08:27:31;;;;;;;;;;;1.70;99.90;;;;;;5116878;27;20232;-85
2021/01/17 08:30:05;;;;;;;;;;;1.70;99.90;;;;;;5135524;27;19911;-86
2021/01/17 08:32:48;;;;;;;;;;;1.80;99.90;;;;;;5117216;28;19953;-86
2021/01/17 08:35:13;;;;;;;;;;;1.80;99.90;;;;;;5117597;28;19914;-86
2021/01/17 08:37:39;;;;;;;;;;;1.80;99.90;;;;;;5138205;27;19911;-86
2021/01/17 08:40:09;;;;;;;;;;;1.90;99.90;;;;;;5145875;27;19941;-87
2021/01/17 08:42:36;;;;;;;;;;;2.00;99.90;;;;;;5129133;27;20241;-88
2021/01/17 08:45:03;;;;;;;;;;;2.00;99.90;;;;;;5143323;27;19923;-87
2021/01/17 08:47:36;;;;;;;;;;;2.00;99.90;;;;;;5116512;28;19926;-87
2021/01/17 08:50:05;;;;;;;;;;;2.10;99.90;;;;;;5116653;28;19933;-87
2021/01/17 08:52:34;;;;;;;;;;;2.10;99.90;;;;;;5111730;28;19999;-87
2021/01/17 08:55:03;;;;;;;;;;;2.20;99.90;;;;;;5113260;28;19955;-87
2021/01/17 08:57:52;;;;;;;;;;;2.20;99.90;;;;;;5122715;27;20010;-87
2021/01/17 09:00:41;;;;;;;;;;;2.20;99.90;;;;;;5127608;27;19915;-87
2021/01/17 09:03:33;;;;;;;;;;;2.20;99.90;;;;;;5162684;27;19911;-86
2021/01/17 09:06:05;;;;;;;;;;;2.30;99.90;;;;;;5122062;28;19960;-86
2021/01/17 09:08:34;;;;;;;;;;;2.30;99.90;;;;;;5116376;28;20014;-86
2021/01/17 09:11:24;;;;;;;;;;;2.40;99.90;;;;;;5116292;28;19954;-86
2021/01/17 09:14:09;;;;;;;;;;;2.40;99.90;;;;;;5133726;28;20010;-86
2021/01/17 09:16:37;;;;;;;;;;;2.50;99.90;;;;;;5133989;28;19908;-86
2021/01/17 09:19:14;;;;;;;;;;;2.50;99.90;;;;;;5116058;28;20369;-86
2021/01/17 09:21:43;;;;;;;;;;;2.50;99.90;;;;;;5134485;28;19908;-85
2021/01/17 09:24:11;;;;;;;;;;;2.60;99.90;;;;;;5116565;27;19938;-85
2021/01/17 09:26:42;;;;;;;;;;;2.70;99.90;;;;;;5131589;27;19971;-85
2021/01/17 09:29:24;;;;;;;;;;;2.70;99.90;;;;;;5139318;27;19908;-84
2021/01/17 09:31:57;;;;;;;;;;;2.80;99.90;;;;;;5135852;27;20415;-84
2021/01/17 09:34:27;;;;;;;;;;;2.90;99.90;;;;;;5136478;27;19929;-84
2021/01/17 09:36:57;;;;;;;;;;;3.00;99.90;;;;;;5136827;27;19914;-84
2021/01/17 09:39:40;;;;;;;;;;;3.10;99.90;;;;;;5158612;27;19915;-84
2021/01/17 09:42:11;;;;;;;;;;;3.20;99.90;;;;;;5139949;27;19911;-84
2021/01/17 09:44:40;;;;;;;;;;;3.30;99.90;;;;;;5139607;27;19911;-85
2021/01/17 09:47:27;;;;;;;;;;;3.40;99.90;;;;;;5134216;27;19987;-84
2021/01/17 09:50:13;;;;;;;;;;;3.40;99.90;;;;;;5158484;27;20022;-85
2021/01/17 09:52:44;;;;;;;;;;;3.40;99.90;;;;;;5133869;27;19914;-85
2021/01/17 09:55:13;;;;;;;;;;;3.50;99.90;;;;;;5132652;27;19911;-85
2021/01/17 09:57:42;;;;;;;;;;;3.50;99.90;;;;;;5139878;27;20264;-85
2021/01/17 10:00:22;;;;;;;;;;;3.50;99.90;;;;;;5139953;27;19911;-84
2021/01/17 10:02:50;;;;;;;;;;;3.50;99.90;;;;;;5139991;27;20270;-85
2021/01/17 10:05:36;;;;;;;;;;;3.60;99.90;;;;;;5133900;27;19911;-85
2021/01/17 10:08:23;;;;;;;;;;;3.70;99.90;;;;;;5114956;28;19997;-85
2021/01/17 10:10:50;;;;;;;;;;;3.80;99.90;;;;;;5111159;28;19931;-86
2021/01/17 10:13:26;;;;;;;;;;;3.80;99.90;;;;;;5097101;28;19911;-84
2021/01/17 10:15:57;;;;;;;;;;;3.80;99.90;;;;;;5097480;28;19922;-85
2021/01/17 10:18:23;;;;;;;;;;;3.80;99.90;;;;;;5093989;28;19908;-85
2021/01/17 10:20:53;;;;;;;;;;;3.90;99.90;;;;;;5097804;28;19922;-84
2021/01/17 10:23:29;;;;;;;;;;;4.10;99.90;;;;;;5096767;28;19916;-85
2021/01/17 10:26:00;;;;;;;;;;;4.40;99.90;;;;;;5098907;28;19923;-85
2021/01/17 10:28:31;;;;;;;;;;;4.60;99.90;;;;;;5113210;28;19957;-85
2021/01/17 10:31:02;;;;;;;;;;;4.60;99.90;;;;;;5091335;28;19919;-88
2021/01/17 10:33:38;;;;;;;;;;;4.60;99.90;;;;;;5095027;28;20062;-88
2021/01/17 10:36:19;;;;;;;;;;;4.60;99.90;;;;;;5098593;28;20029;-87
2021/01/17 10:38:49;;;;;;;;;;;4.60;99.90;;;;;;5106844;27;19912;-86
2021/01/17 10:41:29;;;;;;;;;;;4.70;99.90;;;;;;5139645;27;20279;-86
2021/01/17 10:44:07;;;;;;;;;;;4.70;99.90;;;;;;5137068;27;19914;-89
2021/01/17 10:46:44;;;;;;;;;;;4.90;99.90;;;;;;5146277;27;19966;-86
2021/01/17 10:49:17;;;;;;;;;;;5.10;99.90;;;;;;5122859;27;19927;-87
2021/01/17 10:51:46;;;;;;;;;;;5.20;99.90;;;;;;5121935;27;19907;-87
2021/01/17 10:54:18;;;;;;;;;;;5.40;99.90;;;;;;5118565;27;20380;-87
2021/01/17 10:56:49;;;;;;;;;;;5.50;99.90;;;;;;5118420;27;19995;-88
2021/01/17 10:59:29;;;;;;;;;;;5.60;99.90;;;;;;5123889;27;19946;-87
2021/01/17 11:02:00;;;;;;;;;;;5.60;99.90;;;;;;5142525;27;19915;-86
2021/01/17 11:04:39;;;;;;;;;;;5.70;99.90;;;;;;5135897;27;20318;-88
2021/01/17 11:07:06;;;;;;;;;;;5.80;99.90;;;;;;5136235;27;20305;-86
2021/01/17 11:09:37;;;;;;;;;;;5.90;99.90;;;;;;5153496;27;19907;-88
2021/01/17 11:12:02;;;;;;;;;;;6.00;99.90;;;;;;5142470;27;19907;-86
2021/01/17 11:14:31;;;;;;;;;;;6.10;99.90;;;;;;5126082;27;19914;-87
2021/01/17 11:16:59;;;;;;;;;;;6.00;99.90;;;;;;5124055;27;19915;-88
2021/01/17 11:19:32;;;;;;;;;;;6.10;99.90;;;;;;5140719;27;20310;-87
2021/01/17 11:22:01;;;;;;;;;;;6.30;99.90;;;;;;5143101;27;19915;-87
2021/01/17 11:24:37;;;;;;;;;;;6.90;99.90;;;;;;5156514;27;19926;-89
2021/01/17 11:27:12;;;;;;;;;;;7.50;99.90;;;;;;5144394;27;19943;-92
2021/01/17 11:29:42;;;;;;;;;;;8.40;99.90;;;;;;5145992;27;19914;-91
2021/01/17 11:32:11;;;;;;;;;;;9.50;99.90;;;;;;5144421;27;19907;-91
2021/01/17 11:34:38;;;;;;;;;;;10.40;99.90;;;;;;5154447;27;19964;-90
2021/01/17 11:37:07;;;;;;;;;;;10.90;99.90;;;;;;5141166;27;19955;-91
2021/01/17 11:39:47;;;;;;;;;;;11.10;99.90;;;;;;5142473;27;19983;-91
2021/01/17 11:42:16;;;;;;;;;;;10.90;99.90;;;;;;5140673;27;19907;-91
2021/01/17 11:44:50;;;;;;;;;;;10.50;99.90;;;;;;5127620;27;19907;-90
2021/01/17 11:47:19;;;;;;;;;;;10.00;99.90;;;;;;5128774;27;19926;-90
2021/01/17 11:49:48;;;;;;;;;;;9.80;99.90;;;;;;5139970;27;19912;-90
2021/01/17 11:52:20;;;;;;;;;;;9.80;99.90;;;;;;5126505;27;19963;-91
2021/01/17 11:54:48;;;;;;;;;;;9.80;99.90;;;;;;5118986;27;19915;-90
2021/01/17 11:57:18;;;;;;;;;;;9.70;99.90;;;;;;5150329;27;19907;-90
2021/01/17 11:59:50;;;;;;;;;;;9.80;99.90;;;;;;5129033;27;19915;-90
2021/01/17 12:02:25;;;;;;;;;;;10.00;99.90;;;;;;5138927;27;19994;-91
2021/01/17 12:05:00;;;;;;;;;;;9.90;99.90;;;;;;5157134;27;19914;-91
2021/01/17 12:07:28;;;;;;;;;;;9.40;99.90;;;;;;5135992;27;19961;-91
2021/01/17 12:10:00;;;;;;;;;;;9.00;99.90;;;;;;5138178;27;19918;-90
2021/01/17 12:12:42;;;;;;;;;;;8.70;99.90;;;;;;5143299;27;19908;-90
2021/01/17 12:15:32;;;;;;;;;;;8.70;99.90;;;;;;5138698;27;19915;-91
2021/01/17 12:17:57;;;;;;;;;;;8.80;99.90;;;;;;5156105;27;20264;-89
2021/01/17 12:20:31;;;;;;;;;;;8.60;99.90;;;;;;5132803;27;19941;-89
2021/01/17 12:23:05;;;;;;;;;;;8.80;99.90;;;;;;5036247;28;19920;-89
2021/01/17 12:25:41;;;;;;;;;;;9.50;99.90;;;;;;5050521;28;19916;-89
2021/01/17 12:28:10;;;;;;;;;;;10.10;99.90;;;;;;5042973;28;20378;-89
2021/01/17 12:30:45;;;;;;;;;;;10.80;99.90;;;;;;5032697;28;19936;-89
2021/01/17 12:33:31;;;;;;;;;;;11.30;99.90;;;;;;5033317;28;19916;-90
2021/01/17 12:36:00;;;;;;;;;;;12.00;98.10;;;;;;5021180;28;20467;-89
2021/01/17 12:38:25;;;;;;;;;;;12.50;95.30;;;;;;5029096;28;19992;-90
2021/01/17 12:40:54;;;;;;;;;;;12.90;93.10;;;;;;5039176;28;20384;-89
2021/01/17 12:43:25;;;;;;;;;;;13.10;92.30;;;;;;5023781;28;19951;-88
2021/01/17 12:45:53;;;;;;;;;;;13.30;90.50;;;;;;5040368;28;20407;-88
2021/01/17 12:48:19;;;;;;;;;;;13.40;86.00;;;;;;5046643;28;19920;-88
2021/01/17 12:50:48;;;;;;;;;;;13.40;85.10;;;;;;5047516;28;19918;-88
2021/01/17 12:53:16;;;;;;;;;;;13.40;86.00;;;;;;5088259;28;19907;-89
2021/01/17 12:55:50;;;;;;;;;;;13.50;84.40;;;;;;5120164;28;19919;-88
2021/01/17 12:58:19;;;;;;;;;;;13.70;82.80;;;;;;5107797;28;19914;-89
2021/01/17 13:00:54;;;;;;;;;;;13.90;81.70;;;;;;5095733;28;19915;-89
2021/01/17 13:03:38;;;;;;;;;;;14.10;80.30;;;;;;5093263;28;19955;-91
2021/01/17 13:06:06;;;;;;;;;;;14.30;78.20;;;;;;5095457;28;20295;-87
2021/01/17 13:08:32;;;;;;;;;;;14.10;77.00;;;;;;5091702;28;19908;-89
2021/01/17 13:10:58;;;;;;;;;;;14.10;77.20;;;;;;5113548;27;19934;-88
2021/01/17 13:13:30;;;;;;;;;;;14.30;77.30;;;;;;5112891;27;20383;-88
2021/01/17 13:15:57;;;;;;;;;;;14.50;77.40;;;;;;5122008;27;19907;-89
2021/01/17 13:18:26;;;;;;;;;;;14.60;75.90;;;;;;5118660;27;19918;-89
2021/01/17 13:20:52;;;;;;;;;;;14.70;74.90;;;;;;5120715;27;19920;-89
2021/01/17 13:23:20;;;;;;;;;;;14.40;73.60;;;;;;5119315;27;19907;-89
2021/01/17 13:25:51;;;;;;;;;;;14.40;74.40;;;;;;5119827;27;19998;-89
2021/01/17 13:28:26;;;;;;;;;;;14.20;73.60;;;;;;5121403;27;19912;-89
2021/01/17 13:30:55;;;;;;;;;;;14.10;75.20;;;;;;5122009;27;20336;-89
2021/01/17 13:33:24;;;;;;;;;;;14.10;74.60;;;;;;5139655;27;20249;-89
2021/01/17 13:35:55;;;;;;;;;;;13.60;75.10;;;;;;5116646;27;20363;-89
2021/01/17 13:38:21;;;;;;;;;;;12.90;76.30;;;;;;5120399;27;19912;-89
2021/01/17 13:40:49;;;;;;;;;;;12.20;78.90;;;;;;5123398;27;19919;-89
2021/01/17 13:43:23;;;;;;;;;;;11.60;81.00;;;;;;5125354;27;19931;-90
2021/01/17 13:45:52;;;;;;;;;;;11.00;83.20;;;;;;5126346;27;19947;-88
2021/01/17 13:48:23;;;;;;;;;;;10.50;85.50;;;;;;5124462;27;19919;-89
2021/01/17 13:50:52;;;;;;;;;;;10.00;88.30;;;;;;5123099;27;20363;-90
2021/01/17 13:53:23;;;;;;;;;;;9.70;90.00;;;;;;5122142;27;19925;-89
2021/01/17 13:55:48;;;;;;;;;;;9.40;91.00;;;;;;5121764;27;19908;-88
2021/01/17 13:58:17;;;;;;;;;;;9.20;92.20;;;;;;5121563;27;19908;-89
2021/01/17 14:00:53;;;;;;;;;;;9.00;93.70;;;;;;5116294;27;19915;-89
2021/01/17 14:03:18;;;;;;;;;;;8.90;94.60;;;;;;5118320;27;20332;-89
2021/01/17 14:05:50;;;;;;;;;;;8.80;95.90;;;;;;5121486;27;19954;-89
2021/01/17 14:08:25;;;;;;;;;;;8.70;96.80;;;;;;5119077;27;19919;-90
2021/01/17 14:10:55;;;;;;;;;;;8.60;97.70;;;;;;5121053;27;19908;-90
2021/01/17 14:13:23;;;;;;;;;;;8.50;98.40;;;;;;5139720;27;20328;-90
2021/01/17 14:15:48;;;;;;;;;;;8.50;99.30;;;;;;5120316;27;19911;-90
2021/01/17 14:18:25;;;;;;;;;;;8.30;99.90;;;;;;5140273;27;19942;-89
2021/01/17 14:20:53;;;;;;;;;;;8.20;99.90;;;;;;5141685;27;19915;-89
2021/01/17 14:23:24;;;;;;;;;;;8.10;99.90;;;;;;5100812;28;19912;-89
2021/01/17 14:25:50;;;;;;;;;;;8.10;99.90;;;;;;5088406;28;19926;-90
2021/01/17 14:28:18;;;;;;;;;;;8.10;99.90;;;;;;5097052;28;19919;-89
2021/01/17 14:30:45;;;;;;;;;;;8.00;99.90;;;;;;5116413;28;19908;-88
2021/01/17 14:33:11;;;;;;;;;;;8.00;99.90;;;;;;5105289;28;19932;-88
2021/01/17 14:35:41;;;;;;;;;;;7.90;99.90;;;;;;5099436;28;20346;-89
2021/01/17 14:38:09;;;;;;;;;;;7.80;99.90;;;;;;5106917;28;19912;-89
2021/01/17 14:40:35;;;;;;;;;;;7.70;99.90;;;;;;5100451;28;19915;-87
2021/01/17 14:43:23;;;;;;;;;;;7.60;99.90;;;;;;5098953;28;20413;-88
2021/01/17 14:45:52;;;;;;;;;;;7.50;99.90;;;;;;5101790;28;19908;-88
2021/01/17 14:48:26;;;;;;;;;;;7.40;99.90;;;;;;5106203;27;20435;-89